Terminal Aerodrome Forecast
Issued by NWS Austin/San Antonio, TX

Home | Current Version | Previous Version | Text Only | Print | Product List | Glossary On
Versions: 1 2 3 4 5 6 7 8 9 10 11 12 13 14 15 16 17 18 19 20 21 22 23 24 25
000
FTUS44 KEWX 190500
TAFAUS
TAF
KAUS 190524Z 1906/2012 00000KT P6SM FEW150 BKN250
     FM190900 14003KT 5SM BR SCT040 BKN250
     FM191100 VRB01KT 4SM BR OVC015
     FM191700 15009KT P6SM OVC035
     FM200800 17008KT 4SM BR OVC013=

USA.gov is the U.S. government's official web portal to all federal, state and local government web resources and services.